sensor_id;sensor_type;location;lat;lon;timestamp;pressure;altitude;pressure_sealevel;temperature;humidity
70506;BME280;58032;49.820;6.274;2022-08-01T00:01:26;97763.34;;;17.67;75.26
70506;BME280;58032;49.820;6.274;2022-08-01T00:03:53;97762.31;;;17.65;75.51
70506;BME280;58032;49.820;6.274;2022-08-01T00:06:20;97757.63;;;17.62;75.50
70506;BME280;58032;49.820;6.274;2022-08-01T00:08:47;97759.63;;;17.55;75.40
70506;BME280;58032;49.820;6.274;2022-08-01T00:11:14;97759.63;;;17.55;75.61
70506;BME280;58032;49.820;6.274;2022-08-01T00:13:41;97768.34;;;17.46;75.81
70506;BME280;58032;49.820;6.274;2022-08-01T00:16:08;97762.88;;;17.43;76.13
70506;BME280;58032;49.820;6.274;2022-08-01T00:18:35;97764.66;;;17.40;76.19
70506;BME280;58032;49.820;6.274;2022-08-01T00:21:03;97765.97;;;17.39;76.59
70506;BME280;58032;49.820;6.274;2022-08-01T00:23:30;97766.38;;;17.32;76.61
70506;BME280;58032;49.820;6.274;2022-08-01T00:25:58;97760.06;;;17.22;76.77
70506;BME280;58032;49.820;6.274;2022-08-01T00:28:25;97760.28;;;17.18;77.00
70506;BME280;58032;49.820;6.274;2022-08-01T00:30:51;97757.97;;;17.17;77.12
70506;BME280;58032;49.820;6.274;2022-08-01T00:33:19;97756.91;;;17.14;77.50
70506;BME280;58032;49.820;6.274;2022-08-01T00:35:45;97754.28;;;17.11;76.89
70506;BME280;58032;49.820;6.274;2022-08-01T00:38:13;97759.16;;;17.10;77.10
70506;BME280;58032;49.820;6.274;2022-08-01T00:40:39;97756.06;;;17.08;77.04
70506;BME280;58032;49.820;6.274;2022-08-01T00:43:07;97752.94;;;17.06;77.03
70506;BME280;58032;49.820;6.274;2022-08-01T00:45:34;97759.06;;;16.99;77.64
70506;BME280;58032;49.820;6.274;2022-08-01T00:48:01;97760.19;;;17.07;77.61
70506;BME280;58032;49.820;6.274;2022-08-01T00:50:28;97760.72;;;17.11;77.93
70506;BME280;58032;49.820;6.274;2022-08-01T00:52:55;97751.13;;;17.08;78.07
70506;BME280;58032;49.820;6.274;2022-08-01T00:55:22;97757.34;;;17.07;76.97
70506;BME280;58032;49.820;6.274;2022-08-01T00:57:50;97754.19;;;17.05;78.00
70506;BME280;58032;49.820;6.274;2022-08-01T01:00:18;97758.03;;;17.02;77.53
70506;BME280;58032;49.820;6.274;2022-08-01T01:02:45;97755.91;;;16.97;77.72
70506;BME280;58032;49.820;6.274;2022-08-01T01:05:12;97758.41;;;16.89;78.05
70506;BME280;58032;49.820;6.274;2022-08-01T01:10:16;97760.59;;;16.79;77.77
70506;BME280;58032;49.820;6.274;2022-08-01T01:12:51;97752.84;;;16.80;78.57
70506;BME280;58032;49.820;6.274;2022-08-01T01:15:34;97756.19;;;16.78;78.18
70506;BME280;58032;49.820;6.274;2022-08-01T01:18:09;97757.63;;;16.68;78.40
70506;BME280;58032;49.820;6.274;2022-08-01T01:20:40;97757.53;;;16.62;78.66
70506;BME280;58032;49.820;6.274;2022-08-01T01:31:50;97770.66;;;16.39;80.20
70506;BME280;58032;49.820;6.274;2022-08-01T01:34:19;97759.50;;;16.35;79.52
70506;BME280;58032;49.820;6.274;2022-08-01T01:36:48;97759.13;;;16.27;79.67
70506;BME280;58032;49.820;6.274;2022-08-01T01:39:16;97758.56;;;16.23;80.49
70506;BME280;58032;49.820;6.274;2022-08-01T01:41:46;97756.56;;;16.09;80.66
70506;BME280;58032;49.820;6.274;2022-08-01T01:44:15;97754.00;;;15.81;81.02
70506;BME280;58032;49.820;6.274;2022-08-01T01:46:43;97753.44;;;15.62;82.49
70506;BME280;58032;49.820;6.274;2022-08-01T01:49:11;97752.75;;;15.52;83.50
70506;BME280;58032;49.820;6.274;2022-08-01T01:51:39;97751.28;;;15.42;83.96
70506;BME280;58032;49.820;6.274;2022-08-01T01:54:09;97751.41;;;15.32;84.34
70506;BME280;58032;49.820;6.274;2022-08-01T01:56:37;97749.22;;;15.27;84.50
70506;BME280;58032;49.820;6.274;2022-08-01T01:59:20;97751.06;;;15.15;85.05
70506;BME280;58032;49.820;6.274;2022-08-01T02:01:49;97752.53;;;15.11;85.41
70506;BME280;58032;49.820;6.274;2022-08-01T02:04:20;97748.09;;;15.10;86.20
70506;BME280;58032;49.820;6.274;2022-08-01T02:06:50;97754.78;;;15.22;86.71
70506;BME280;58032;49.820;6.274;2022-08-01T02:09:20;97741.59;;;15.18;86.43
70506;BME280;58032;49.820;6.274;2022-08-01T02:11:48;97746.88;;;15.26;87.01
70506;BME280;58032;49.820;6.274;2022-08-01T02:14:17;97742.56;;;15.30;86.90
70506;BME280;58032;49.820;6.274;2022-08-01T02:16:48;97741.13;;;15.35;86.26
70506;BME280;58032;49.820;6.274;2022-08-01T02:19:18;97734.94;;;15.37;86.65
70506;BME280;58032;49.820;6.274;2022-08-01T02:21:51;97743.56;;;15.42;86.26
70506;BME280;58032;49.820;6.274;2022-08-01T02:24:30;97736.69;;;15.49;85.66
70506;BME280;58032;49.820;6.274;2022-08-01T02:27:01;97738.25;;;15.50;85.79
70506;BME280;58032;49.820;6.274;2022-08-01T02:29:47;97741.97;;;15.56;86.02
70506;BME280;58032;49.820;6.274;2022-08-01T02:32:23;97736.91;;;15.60;85.46
70506;BME280;58032;49.820;6.274;2022-08-01T02:34:53;97745.72;;;15.62;84.35
70506;BME280;58032;49.820;6.274;2022-08-01T02:37:23;97741.78;;;15.60;85.06
70506;BME280;58032;49.820;6.274;2022-08-01T02:39:54;97738.88;;;15.54;85.71
70506;BME280;58032;49.820;6.274;2022-08-01T02:42:23;97738.06;;;15.54;86.03
70506;BME280;58032;49.820;6.274;2022-08-01T02:44:51;97734.06;;;15.60;86.24
70506;BME280;58032;49.820;6.274;2022-08-01T02:47:22;97729.25;;;15.66;86.18
70506;BME280;58032;49.820;6.274;2022-08-01T02:49:52;97736.19;;;15.65;85.87
70506;BME280;58032;49.820;6.274;2022-08-01T02:52:20;97734.94;;;15.66;85.90
70506;BME280;58032;49.820;6.274;2022-08-01T02:54:51;97734.44;;;15.68;86.04
70506;BME280;58032;49.820;6.274;2022-08-01T02:57:21;97734.03;;;15.75;85.14
70506;BME280;58032;49.820;6.274;2022-08-01T02:59:49;97734.03;;;15.75;84.84
70506;BME280;58032;49.820;6.274;2022-08-01T03:02:17;97737.28;;;15.68;85.15
70506;BME280;58032;49.820;6.274;2022-08-01T03:04:47;97738.28;;;15.65;84.89
70506;BME280;58032;49.820;6.274;2022-08-01T03:07:16;97731.59;;;15.68;85.42
70506;BME280;58032;49.820;6.274;2022-08-01T03:09:46;97736.50;;;15.67;85.69
70506;BME280;58032;49.820;6.274;2022-08-01T03:12:17;97737.28;;;15.68;85.47
70506;BME280;58032;49.820;6.274;2022-08-01T03:14:47;97735.91;;;15.63;85.97
70506;BME280;58032;49.820;6.274;2022-08-01T03:17:18;97734.38;;;15.62;85.17
70506;BME280;58032;49.820;6.274;2022-08-01T03:19:48;97729.75;;;15.50;85.36
70506;BME280;58032;49.820;6.274;2022-08-01T03:22:17;97733.97;;;15.40;85.77
70506;BME280;58032;49.820;6.274;2022-08-01T03:24:47;97732.00;;;15.31;86.43
70506;BME280;58032;49.820;6.274;2022-08-01T03:27:20;97729.78;;;15.35;87.09
70506;BME280;58032;49.820;6.274;2022-08-01T03:29:49;97726.44;;;15.37;86.90
70506;BME280;58032;49.820;6.274;2022-08-01T03:32:18;97727.13;;;15.31;86.36
70506;BME280;58032;49.820;6.274;2022-08-01T03:34:46;97731.41;;;15.12;86.57
70506;BME280;58032;49.820;6.274;2022-08-01T03:37:27;97730.72;;;15.02;87.13
70506;BME280;58032;49.820;6.274;2022-08-01T03:40:02;97736.38;;;15.02;87.27
70506;BME280;58032;49.820;6.274;2022-08-01T03:42:34;97737.47;;;15.04;87.54
70506;BME280;58032;49.820;6.274;2022-08-01T03:45:11;97734.13;;;15.06;87.52
70506;BME280;58032;49.820;6.274;2022-08-01T03:47:43;97738.44;;;15.01;88.05
70506;BME280;58032;49.820;6.274;2022-08-01T03:50:13;97737.06;;;14.97;88.82
70506;BME280;58032;49.820;6.274;2022-08-01T03:52:43;97740.66;;;14.97;88.32
70506;BME280;58032;49.820;6.274;2022-08-01T03:55:13;97735.06;;;14.88;89.28
70506;BME280;58032;49.820;6.274;2022-08-01T03:57:44;97737.81;;;14.82;89.34
70506;BME280;58032;49.820;6.274;2022-08-01T04:00:12;97736.13;;;14.76;89.75
70506;BME280;58032;49.820;6.274;2022-08-01T04:02:40;97728.00;;;14.68;89.92
70506;BME280;58032;49.820;6.274;2022-08-01T04:05:08;97737.28;;;14.69;90.68
70506;BME280;58032;49.820;6.274;2022-08-01T04:07:35;97738.97;;;14.76;91.71
70506;BME280;58032;49.820;6.274;2022-08-01T04:10:04;97735.44;;;14.81;91.62
70506;BME280;58032;49.820;6.274;2022-08-01T04:12:31;97732.72;;;14.86;91.75
70506;BME280;58032;49.820;6.274;2022-08-01T04:14:59;97732.25;;;14.88;91.61
70506;BME280;58032;49.820;6.274;2022-08-01T04:17:26;97733.63;;;14.93;91.73
70506;BME280;58032;49.820;6.274;2022-08-01T04:19:53;97733.72;;;14.98;91.82
70506;BME280;58032;49.820;6.274;2022-08-01T04:22:20;97739.53;;;15.04;91.62
70506;BME280;58032;49.820;6.274;2022-08-01T04:24:49;97740.09;;;15.08;91.41
70506;BME280;58032;49.820;6.274;2022-08-01T04:27:32;97746.56;;;15.09;90.96
70506;BME280;58032;49.820;6.274;2022-08-01T04:30:02;97746.84;;;15.11;91.20
70506;BME280;58032;49.820;6.274;2022-08-01T04:32:33;97742.94;;;15.08;91.36
70506;BME280;58032;49.820;6.274;2022-08-01T04:35:05;97755.16;;;15.14;90.74
70506;BME280;58032;49.820;6.274;2022-08-01T04:37:35;97755.28;;;15.20;90.95
70506;BME280;58032;49.820;6.274;2022-08-01T04:40:06;97751.97;;;15.37;90.72
70506;BME280;58032;49.820;6.274;2022-08-01T04:42:34;97752.34;;;15.59;90.15
70506;BME280;58032;49.820;6.274;2022-08-01T04:45:01;97752.94;;;15.78;88.98
70506;BME280;58032;49.820;6.274;2022-08-01T04:47:29;97764.22;;;15.88;88.45
70506;BME280;58032;49.820;6.274;2022-08-01T04:49:57;97766.66;;;15.95;87.75
70506;BME280;58032;49.820;6.274;2022-08-01T04:52:36;97771.13;;;16.02;87.45
70506;BME280;58032;49.820;6.274;2022-08-01T04:55:04;97771.31;;;16.13;87.23
70506;BME280;58032;49.820;6.274;2022-08-01T04:57:36;97770.19;;;16.25;86.18
70506;BME280;58032;49.820;6.274;2022-08-01T05:00:04;97771.66;;;16.36;85.78
70506;BME280;58032;49.820;6.274;2022-08-01T05:02:33;97773.00;;;16.40;85.30
70506;BME280;58032;49.820;6.274;2022-08-01T05:05:00;97777.28;;;16.51;84.87
70506;BME280;58032;49.820;6.274;2022-08-01T05:07:27;97777.94;;;16.60;84.19
70506;BME280;58032;49.820;6.274;2022-08-01T05:09:54;97780.34;;;16.47;84.88
70506;BME280;58032;49.820;6.274;2022-08-01T05:12:21;97780.78;;;16.60;84.62
70506;BME280;58032;49.820;6.274;2022-08-01T05:14:48;97788.16;;;16.73;84.18
70506;BME280;58032;49.820;6.274;2022-08-01T05:17:15;97786.69;;;16.77;83.89
70506;BME280;58032;49.820;6.274;2022-08-01T05:19:43;97795.00;;;16.81;84.20
70506;BME280;58032;49.820;6.274;2022-08-01T05:22:10;97787.91;;;16.91;83.11
70506;BME280;58032;49.820;6.274;2022-08-01T05:24:39;97793.59;;;16.91;83.16
70506;BME280;58032;49.820;6.274;2022-08-01T05:27:06;97786.47;;;17.02;83.33
70506;BME280;58032;49.820;6.274;2022-08-01T05:29:35;97794.75;;;17.00;82.62
70506;BME280;58032;49.820;6.274;2022-08-01T05:32:04;97792.97;;;17.02;82.54
70506;BME280;58032;49.820;6.274;2022-08-01T05:34:31;97784.50;;;17.08;82.29
70506;BME280;58032;49.820;6.274;2022-08-01T05:36:58;97792.44;;;17.24;82.17
70506;BME280;58032;49.820;6.274;2022-08-01T05:39:25;97796.38;;;17.27;81.10
70506;BME280;58032;49.820;6.274;2022-08-01T05:41:52;97787.75;;;17.21;81.42
70506;BME280;58032;49.820;6.274;2022-08-01T05:44:19;97781.16;;;17.09;82.04
70506;BME280;58032;49.820;6.274;2022-08-01T05:46:47;97786.25;;;17.26;81.82
70506;BME280;58032;49.820;6.274;2022-08-01T05:49:14;97790.03;;;17.44;80.94
70506;BME280;58032;49.820;6.274;2022-08-01T05:51:41;97792.13;;;17.43;80.07
70506;BME280;58032;49.820;6.274;2022-08-01T05:54:08;97796.38;;;17.53;81.14
70506;BME280;58032;49.820;6.274;2022-08-01T05:56:35;97797.31;;;17.45;80.53
70506;BME280;58032;49.820;6.274;2022-08-01T05:59:02;97796.59;;;17.23;80.78
70506;BME280;58032;49.820;6.274;2022-08-01T06:01:29;97799.38;;;17.44;80.46
70506;BME280;58032;49.820;6.274;2022-08-01T06:03:56;97795.81;;;17.49;80.22
70506;BME280;58032;49.820;6.274;2022-08-01T06:06:23;97803.81;;;17.24;80.67
70506;BME280;58032;49.820;6.274;2022-08-01T06:08:51;97811.50;;;17.18;81.18
70506;BME280;58032;49.820;6.274;2022-08-01T06:11:18;97803.84;;;17.04;82.48
70506;BME280;58032;49.820;6.274;2022-08-01T06:13:45;97806.19;;;17.26;81.40
70506;BME280;58032;49.820;6.274;2022-08-01T06:16:12;97808.06;;;17.35;81.35
70506;BME280;58032;49.820;6.274;2022-08-01T06:18:39;97818.03;;;17.45;80.58
70506;BME280;58032;49.820;6.274;2022-08-01T06:21:06;97819.59;;;17.46;80.43
70506;BME280;58032;49.820;6.274;2022-08-01T06:23:33;97814.44;;;17.50;80.21
70506;BME280;58032;49.820;6.274;2022-08-01T06:26:00;97822.25;;;17.55;79.63
70506;BME280;58032;49.820;6.274;2022-08-01T06:28:27;97819.03;;;17.42;80.26
70506;BME280;58032;49.820;6.274;2022-08-01T06:30:55;97814.06;;;17.37;80.49
70506;BME280;58032;49.820;6.274;2022-08-01T06:33:22;97820.75;;;17.60;79.99
70506;BME280;58032;49.820;6.274;2022-08-01T06:35:49;97821.09;;;17.68;79.06
70506;BME280;58032;49.820;6.274;2022-08-01T06:38:16;97817.91;;;17.60;79.13
70506;BME280;58032;49.820;6.274;2022-08-01T06:40:43;97821.03;;;17.62;79.61
70506;BME280;58032;49.820;6.274;2022-08-01T06:43:10;97822.81;;;17.86;77.79
70506;BME280;58032;49.820;6.274;2022-08-01T06:45:39;97817.13;;;18.12;77.54
